sensor_id;sensor_type;location;lat;lon;timestamp;temperature;humidity
31677;DHT22;18385;51.572;6.578;2022-12-18T00:00:45;-1.10;71.70
31677;DHT22;18385;51.572;6.578;2022-12-18T00:03:13;-1.10;71.60
31677;DHT22;18385;51.572;6.578;2022-12-18T00:05:47;-1.00;71.70
31677;DHT22;18385;51.572;6.578;2022-12-18T00:08:13;-1.00;71.60
31677;DHT22;18385;51.572;6.578;2022-12-18T00:10:38;-1.00;71.60
31677;DHT22;18385;51.572;6.578;2022-12-18T00:13:04;-1.00;71.50
31677;DHT22;18385;51.572;6.578;2022-12-18T00:15:29;-1.00;71.60
31677;DHT22;18385;51.572;6.578;2022-12-18T00:17:55;-0.90;71.70
31677;DHT22;18385;51.572;6.578;2022-12-18T00:20:21;-0.90;71.60
31677;DHT22;18385;51.572;6.578;2022-12-18T00:22:52;-0.80;71.60
31677;DHT22;18385;51.572;6.578;2022-12-18T00:25:17;-0.80;71.50
31677;DHT22;18385;51.572;6.578;2022-12-18T00:27:43;-0.90;71.40
31677;DHT22;18385;51.572;6.578;2022-12-18T00:30:09;-0.90;71.50
31677;DHT22;18385;51.572;6.578;2022-12-18T00:32:35;-0.90;71.50
31677;DHT22;18385;51.572;6.578;2022-12-18T00:35:01;-0.90;71.60
31677;DHT22;18385;51.572;6.578;2022-12-18T00:37:27;-0.90;71.60
31677;DHT22;18385;51.572;6.578;2022-12-18T00:39:52;-0.90;71.60
31677;DHT22;18385;51.572;6.578;2022-12-18T00:42:19;-0.90;71.60
31677;DHT22;18385;51.572;6.578;2022-12-18T00:45:04;-0.90;71.50
31677;DHT22;18385;51.572;6.578;2022-12-18T00:47:30;-0.90;71.50
31677;DHT22;18385;51.572;6.578;2022-12-18T00:49:56;-0.90;71.50
31677;DHT22;18385;51.572;6.578;2022-12-18T00:52:22;-1.00;71.40
31677;DHT22;18385;51.572;6.578;2022-12-18T00:54:47;-1.00;71.30
31677;DHT22;18385;51.572;6.578;2022-12-18T00:57:13;-1.10;71.30
31677;DHT22;18385;51.572;6.578;2022-12-18T00:59:38;-1.30;71.10
31677;DHT22;18385;51.572;6.578;2022-12-18T01:02:04;-1.40;71.20
31677;DHT22;18385;51.572;6.578;2022-12-18T01:04:32;-1.50;71.20
31677;DHT22;18385;51.572;6.578;2022-12-18T01:06:58;-1.60;71.30
31677;DHT22;18385;51.572;6.578;2022-12-18T01:09:23;-1.70;71.30
31677;DHT22;18385;51.572;6.578;2022-12-18T01:11:51;-1.80;71.50
31677;DHT22;18385;51.572;6.578;2022-12-18T01:14:16;-1.80;71.60
31677;DHT22;18385;51.572;6.578;2022-12-18T01:16:42;-1.90;71.70
31677;DHT22;18385;51.572;6.578;2022-12-18T01:19:08;-1.90;71.80
31677;DHT22;18385;51.572;6.578;2022-12-18T01:21:34;-1.90;71.80
31677;DHT22;18385;51.572;6.578;2022-12-18T01:24:03;-1.90;71.90
31677;DHT22;18385;51.572;6.578;2022-12-18T01:26:29;-1.90;71.90
31677;DHT22;18385;51.572;6.578;2022-12-18T01:28:56;-1.90;72.00
31677;DHT22;18385;51.572;6.578;2022-12-18T01:31:25;-1.90;72.10
31677;DHT22;18385;51.572;6.578;2022-12-18T01:33:51;-1.90;72.10
31677;DHT22;18385;51.572;6.578;2022-12-18T01:36:30;-1.80;72.10
31677;DHT22;18385;51.572;6.578;2022-12-18T01:38:58;-1.80;72.10
31677;DHT22;18385;51.572;6.578;2022-12-18T01:41:27;-1.70;72.10
31677;DHT22;18385;51.572;6.578;2022-12-18T01:47:35;-1.70;71.60
31677;DHT22;18385;51.572;6.578;2022-12-18T01:50:22;-1.70;71.70
31677;DHT22;18385;51.572;6.578;2022-12-18T01:52:54;-1.80;71.60
31677;DHT22;18385;51.572;6.578;2022-12-18T01:55:24;-1.80;71.80
31677;DHT22;18385;51.572;6.578;2022-12-18T01:57:54;-1.80;71.80
31677;DHT22;18385;51.572;6.578;2022-12-18T02:00:22;-1.90;71.80
31677;DHT22;18385;51.572;6.578;2022-12-18T02:02:51;-1.90;71.90
31677;DHT22;18385;51.572;6.578;2022-12-18T02:05:35;-1.90;71.90
31677;DHT22;18385;51.572;6.578;2022-12-18T02:11:18;-2.00;71.70
31677;DHT22;18385;51.572;6.578;2022-12-18T02:13:57;-2.00;71.70
31677;DHT22;18385;51.572;6.578;2022-12-18T02:16:39;-2.00;71.60
31677;DHT22;18385;51.572;6.578;2022-12-18T02:19:33;-2.10;71.60
31677;DHT22;18385;51.572;6.578;2022-12-18T02:24:57;-2.30;71.70
31677;DHT22;18385;51.572;6.578;2022-12-18T02:27:28;-2.30;71.80
31677;DHT22;18385;51.572;6.578;2022-12-18T02:29:55;-2.40;71.80
31677;DHT22;18385;51.572;6.578;2022-12-18T02:32:34;-2.40;71.90
31677;DHT22;18385;51.572;6.578;2022-12-18T02:35:02;-2.40;71.90
31677;DHT22;18385;51.572;6.578;2022-12-18T02:37:30;-2.40;72.00
31677;DHT22;18385;51.572;6.578;2022-12-18T02:40:01;-2.40;72.00
31677;DHT22;18385;51.572;6.578;2022-12-18T02:42:30;-2.40;72.10
31677;DHT22;18385;51.572;6.578;2022-12-18T02:44:58;-2.40;72.10
31677;DHT22;18385;51.572;6.578;2022-12-18T02:47:31;-2.40;72.00
31677;DHT22;18385;51.572;6.578;2022-12-18T02:50:17;-2.40;71.90
31677;DHT22;18385;51.572;6.578;2022-12-18T02:55:55;-2.40;71.90
31677;DHT22;18385;51.572;6.578;2022-12-18T03:04:06;-2.40;71.80
31677;DHT22;18385;51.572;6.578;2022-12-18T03:06:39;-2.50;71.80
31677;DHT22;18385;51.572;6.578;2022-12-18T03:09:15;-2.50;71.70
31677;DHT22;18385;51.572;6.578;2022-12-18T03:11:48;-2.50;71.80
31677;DHT22;18385;51.572;6.578;2022-12-18T03:14:38;-2.50;71.80
31677;DHT22;18385;51.572;6.578;2022-12-18T03:17:06;-2.60;71.80
31677;DHT22;18385;51.572;6.578;2022-12-18T03:19:38;-2.60;71.90
31677;DHT22;18385;51.572;6.578;2022-12-18T03:22:07;-2.60;72.00
31677;DHT22;18385;51.572;6.578;2022-12-18T03:24:42;-2.60;71.90
31677;DHT22;18385;51.572;6.578;2022-12-18T03:27:12;-2.60;71.90
31677;DHT22;18385;51.572;6.578;2022-12-18T03:29:44;-2.60;71.80
31677;DHT22;18385;51.572;6.578;2022-12-18T03:32:27;-2.60;71.80
31677;DHT22;18385;51.572;6.578;2022-12-18T03:34:59;-2.60;71.80
31677;DHT22;18385;51.572;6.578;2022-12-18T03:37:30;-2.70;71.80
31677;DHT22;18385;51.572;6.578;2022-12-18T03:39:56;-2.80;72.00
31677;DHT22;18385;51.572;6.578;2022-12-18T03:42:29;-2.80;72.10
31677;DHT22;18385;51.572;6.578;2022-12-18T03:45:20;-2.80;72.10
31677;DHT22;18385;51.572;6.578;2022-12-18T03:48:31;-2.80;72.10
31677;DHT22;18385;51.572;6.578;2022-12-18T03:50:49;-2.80;72.20
31677;DHT22;18385;51.572;6.578;2022-12-18T03:53:35;-2.80;72.30
31677;DHT22;18385;51.572;6.578;2022-12-18T03:56:04;-2.80;72.30
31677;DHT22;18385;51.572;6.578;2022-12-18T03:58:37;-2.70;72.30
31677;DHT22;18385;51.572;6.578;2022-12-18T04:01:16;-2.70;72.10
31677;DHT22;18385;51.572;6.578;2022-12-18T04:03:44;-2.70;72.00
31677;DHT22;18385;51.572;6.578;2022-12-18T04:06:13;-2.60;72.00
31677;DHT22;18385;51.572;6.578;2022-12-18T04:08:41;-2.60;72.00
31677;DHT22;18385;51.572;6.578;2022-12-18T04:11:10;-2.60;72.00
31677;DHT22;18385;51.572;6.578;2022-12-18T04:13:37;-2.60;71.90
31677;DHT22;18385;51.572;6.578;2022-12-18T04:16:07;-2.60;71.90
31677;DHT22;18385;51.572;6.578;2022-12-18T04:18:34;-2.60;72.00
31677;DHT22;18385;51.572;6.578;2022-12-18T04:21:01;-2.60;71.90
31677;DHT22;18385;51.572;6.578;2022-12-18T04:23:27;-2.60;72.00
31677;DHT22;18385;51.572;6.578;2022-12-18T04:25:56;-2.60;71.90
31677;DHT22;18385;51.572;6.578;2022-12-18T04:28:36;-2.60;71.80
31677;DHT22;18385;51.572;6.578;2022-12-18T04:31:02;-2.60;71.70
31677;DHT22;18385;51.572;6.578;2022-12-18T04:33:28;-2.60;71.70
31677;DHT22;18385;51.572;6.578;2022-12-18T04:35:53;-2.70;71.70
31677;DHT22;18385;51.572;6.578;2022-12-18T04:38:19;-2.60;71.90
31677;DHT22;18385;51.572;6.578;2022-12-18T04:40:50;-2.70;72.00
31677;DHT22;18385;51.572;6.578;2022-12-18T04:43:22;-2.70;72.10
31677;DHT22;18385;51.572;6.578;2022-12-18T04:45:48;-2.70;72.10
31677;DHT22;18385;51.572;6.578;2022-12-18T04:48:13;-2.60;72.20
31677;DHT22;18385;51.572;6.578;2022-12-18T04:50:39;-2.60;72.10
31677;DHT22;18385;51.572;6.578;2022-12-18T04:53:04;-2.50;72.00
31677;DHT22;18385;51.572;6.578;2022-12-18T04:55:30;-2.50;72.00
31677;DHT22;18385;51.572;6.578;2022-12-18T04:57:56;-2.40;72.20
31677;DHT22;18385;51.572;6.578;2022-12-18T05:00:24;-2.40;72.10
31677;DHT22;18385;51.572;6.578;2022-12-18T05:02:51;-2.30;72.20
31677;DHT22;18385;51.572;6.578;2022-12-18T05:05:16;-2.20;72.20
31677;DHT22;18385;51.572;6.578;2022-12-18T05:07:42;-2.10;72.10
31677;DHT22;18385;51.572;6.578;2022-12-18T05:10:08;-2.10;72.10
31677;DHT22;18385;51.572;6.578;2022-12-18T05:12:34;-2.00;72.10
31677;DHT22;18385;51.572;6.578;2022-12-18T05:15:19;-1.90;72.00
31677;DHT22;18385;51.572;6.578;2022-12-18T05:17:45;-1.90;71.90
31677;DHT22;18385;51.572;6.578;2022-12-18T05:24:32;-1.70;72.10
31677;DHT22;18385;51.572;6.578;2022-12-18T05:26:58;-1.70;71.90
31677;DHT22;18385;51.572;6.578;2022-12-18T05:29:24;-1.70;71.90
31677;DHT22;18385;51.572;6.578;2022-12-18T05:31:50;-1.60;72.00
31677;DHT22;18385;51.572;6.578;2022-12-18T05:34:16;-1.60;71.80
31677;DHT22;18385;51.572;6.578;2022-12-18T05:36:42;-1.60;71.80
31677;DHT22;18385;51.572;6.578;2022-12-18T05:39:07;-1.50;71.80
31677;DHT22;18385;51.572;6.578;2022-12-18T05:41:33;-1.50;71.90
31677;DHT22;18385;51.572;6.578;2022-12-18T05:43:59;-1.40;71.80
31677;DHT22;18385;51.572;6.578;2022-12-18T05:46:25;-1.40;71.70
31677;DHT22;18385;51.572;6.578;2022-12-18T05:48:51;-1.30;71.80
31677;DHT22;18385;51.572;6.578;2022-12-18T05:51:19;-1.30;71.70
31677;DHT22;18385;51.572;6.578;2022-12-18T05:53:45;-1.20;71.60
31677;DHT22;18385;51.572;6.578;2022-12-18T05:56:17;-1.20;71.70
31677;DHT22;18385;51.572;6.578;2022-12-18T05:58:43;-1.10;71.90
31677;DHT22;18385;51.572;6.578;2022-12-18T06:03:37;-1.10;71.60
31677;DHT22;18385;51.572;6.578;2022-12-18T06:06:03;-1.00;71.60
31677;DHT22;18385;51.572;6.578;2022-12-18T06:08:28;-1.00;71.50
31677;DHT22;18385;51.572;6.578;2022-12-18T06:10:54;-1.00;71.40
31677;DHT22;18385;51.572;6.578;2022-12-18T06:13:20;-1.00;71.40
31677;DHT22;18385;51.572;6.578;2022-12-18T06:15:46;-1.10;71.40
31677;DHT22;18385;51.572;6.578;2022-12-18T06:18:12;-1.10;71.60
31677;DHT22;18385;51.572;6.578;2022-12-18T06:20:38;-1.10;71.60
31677;DHT22;18385;51.572;6.578;2022-12-18T06:23:05;-1.00;71.60
31677;DHT22;18385;51.572;6.578;2022-12-18T06:25:31;-1.00;72.30
31677;DHT22;18385;51.572;6.578;2022-12-18T06:27:58;-1.10;71.40
31677;DHT22;18385;51.572;6.578;2022-12-18T06:30:24;-1.10;71.30
31677;DHT22;18385;51.572;6.578;2022-12-18T06:32:50;-1.10;71.30
31677;DHT22;18385;51.572;6.578;2022-12-18T06:35:16;-1.20;71.30
31677;DHT22;18385;51.572;6.578;2022-12-18T06:37:41;-1.30;71.50
31677;DHT22;18385;51.572;6.578;2022-12-18T06:40:07;-1.30;71.60
31677;DHT22;18385;51.572;6.578;2022-12-18T06:42:33;-1.30;71.60
31677;DHT22;18385;51.572;6.578;2022-12-18T06:44:59;-1.40;71.60
31677;DHT22;18385;51.572;6.578;2022-12-18T06:47:24;-1.40;71.60
31677;DHT22;18385;51.572;6.578;2022-12-18T06:49:50;-1.50;71.50
31677;DHT22;18385;51.572;6.578;2022-12-18T06:52:16;-1.60;71.40
31677;DHT22;18385;51.572;6.578;2022-12-18T06:54:41;-1.60;71.60
31677;DHT22;18385;51.572;6.578;2022-12-18T06:57:07;-1.70;71.60
31677;DHT22;18385;51.572;6.578;2022-12-18T06:59:33;-1.80;71.60
31677;DHT22;18385;51.572;6.578;2022-12-18T07:01:59;-1.90;71.70
31677;DHT22;18385;51.572;6.578;2022-12-18T07:04:31;-1.90;71.80
31677;DHT22;18385;51.572;6.578;2022-12-18T07:06:56;-2.00;71.80
31677;DHT22;18385;51.572;6.578;2022-12-18T07:09:23;-2.00;72.00
31677;DHT22;18385;51.572;6.578;2022-12-18T07:11:49;-2.00;72.20
31677;DHT22;18385;51.572;6.578;2022-12-18T07:14:14;-2.00;72.20
31677;DHT22;18385;51.572;6.578;2022-12-18T07:16:40;-2.00;72.20
31677;DHT22;18385;51.572;6.578;2022-12-18T07:19:06;-2.00;72.20
31677;DHT22;18385;51.572;6.578;2022-12-18T07:21:32;-1.90;72.20
31677;DHT22;18385;51.572;6.578;2022-12-18T07:23:57;-1.90;72.10
31677;DHT22;18385;51.572;6.578;2022-12-18T07:26:23;-1.80;72.20
31677;DHT22;18385;51.572;6.578;2022-12-18T07:28:49;-1.70;72.20
31677;DHT22;18385;51.572;6.578;2022-12-18T07:31:18;-1.70;72.10
31677;DHT22;18385;51.572;6.578;2022-12-18T07:33:45;-1.60;72.10
31677;DHT22;18385;51.572;6.578;2022-12-18T07:36:17;-1.50;72.10
31677;DHT22;18385;51.572;6.578;2022-12-18T07:38:46;-1.40;72.00
31677;DHT22;18385;51.572;6.578;2022-12-18T07:41:13;-1.40;71.90
31677;DHT22;18385;51.572;6.578;2022-12-18T07:43:40;-1.40;71.80
31677;DHT22;18385;51.572;6.578;2022-12-18T07:46:07;-1.40;71.80
31677;DHT22;18385;51.572;6.578;2022-12-18T07:48:32;-1.30;71.80
31677;DHT22;18385;51.572;6.578;2022-12-18T07:51:05;-1.30;71.80
31677;DHT22;18385;51.572;6.578;2022-12-18T07:53:32;-1.40;71.70
31677;DHT22;18385;51.572;6.578;2022-12-18T07:56:00;-1.30;72.00
31677;DHT22;18385;51.572;6.578;2022-12-18T07:58:26;-1.20;72.10
31677;DHT22;18385;51.572;6.578;2022-12-18T08:00:52;-1.10;72.10
31677;DHT22;18385;51.572;6.578;2022-12-18T08:03:18;-1.00;72.00
31677;DHT22;18385;51.572;6.578;2022-12-18T08:05:44;-0.90;71.90
31677;DHT22;18385;51.572;6.578;2022-12-18T08:08:10;-0.90;71.80
31677;DHT22;18385;51.572;6.578;2022-12-18T08:10:37;-0.80;71.60
31677;DHT22;18385;51.572;6.578;2022-12-18T08:13:03;-0.80;71.40
31677;DHT22;18385;51.572;6.578;2022-12-18T08:15:28;-0.80;71.40
31677;DHT22;18385;51.572;6.578;2022-12-18T08:17:56;-0.70;71.60
31677;DHT22;18385;51.572;6.578;2022-12-18T08:20:22;-0.70;71.60
31677;DHT22;18385;51.572;6.578;2022-12-18T08:22:48;-0.60;71.60
31677;DHT22;18385;51.572;6.578;2022-12-18T08:25:13;-0.50;71.60
31677;DHT22;18385;51.572;6.578;2022-12-18T08:27:39;-0.50;71.50
31677;DHT22;18385;51.572;6.578;2022-12-18T08:30:06;-0.40;71.50
31677;DHT22;18385;51.572;6.578;2022-12-18T08:32:32;-0.30;71.60
31677;DHT22;18385;51.572;6.578;2022-12-18T08:34:58;-0.20;71.50
31677;DHT22;18385;51.572;6.578;2022-12-18T08:37:24;-0.10;71.40
31677;DHT22;18385;51.572;6.578;2022-12-18T08:39:50;0.00;71.30
31677;DHT22;18385;51.572;6.578;2022-12-18T08:42:16;0.10;71.30
31677;DHT22;18385;51.572;6.578;2022-12-18T08:45:00;0.20;71.20
31677;DHT22;18385;51.572;6.578;2022-12-18T08:47:25;0.30;71.10
31677;DHT22;18385;51.572;6.578;2022-12-18T08:49:51;0.30;71.00
31677;DHT22;18385;51.572;6.578;2022-12-18T08:52:17;0.40;71.10
31677;DHT22;18385;51.572;6.578;2022-12-18T08:54:43;0.50;71.00
31677;DHT22;18385;51.572;6.578;2022-12-18T08:57:08;0.60;71.00
31677;DHT22;18385;51.572;6.578;2022-12-18T08:59:34;0.70;70.90
31677;DHT22;18385;51.572;6.578;2022-12-18T09:02:00;0.80;70.90
31677;DHT22;18385;51.572;6.578;2022-12-18T09:04:25;0.90;70.90
31677;DHT22;18385;51.572;6.578;2022-12-18T09:06:51;0.90;70.80
31677;DHT22;18385;51.572;6.578;2022-12-18T09:09:20;1.00;70.70
31677;DHT22;18385;51.572;6.578;2022-12-18T09:11:45;1.10;70.70
31677;DHT22;18385;51.572;6.578;2022-12-18T09:14:11;1.10;70.60
31677;DHT22;18385;51.572;6.578;2022-12-18T09:16:37;1.20;70.60
31677;DHT22;18385;51.572;6.578;2022-12-18T09:19:04;1.30;70.70
31677;DHT22;18385;51.572;6.578;2022-12-18T09:21:32;1.30;70.70
31677;DHT22;18385;51.572;6.578;2022-12-18T09:23:58;1.40;70.60
31677;DHT22;18385;51.572;6.578;2022-12-18T09:26:25;1.50;70.60
31677;DHT22;18385;51.572;6.578;2022-12-18T09:28:51;1.70;70.60
31677;DHT22;18385;51.572;6.578;2022-12-18T09:31:20;1.80;70.50
31677;DHT22;18385;51.572;6.578;2022-12-18T09:33:46;1.90;70.40
31677;DHT22;18385;51.572;6.578;2022-12-18T09:36:14;1.90;70.30
31677;DHT22;18385;51.572;6.578;2022-12-18T09:38:40;2.00;70.30
31677;DHT22;18385;51.572;6.578;2022-12-18T09:43:53;2.20;70.10
31677;DHT22;18385;51.572;6.578;2022-12-18T09:46:35;2.30;70.00
31677;DHT22;18385;51.572;6.578;2022-12-18T09:49:07;2.30;69.90
31677;DHT22;18385;51.572;6.578;2022-12-18T09:54:12;2.50;69.90
31677;DHT22;18385;51.572;6.578;2022-12-18T09:56:42;2.60;70.00
31677;DHT22;18385;51.572;6.578;2022-12-18T10:01:48;2.80;70.00
31677;DHT22;18385;51.572;6.578;2022-12-18T10:04:18;2.90;69.80
31677;DHT22;18385;51.572;6.578;2022-12-18T10:06:50;3.00;69.80
31677;DHT22;18385;51.572;6.578;2022-12-18T10:09:37;3.00;69.70
31677;DHT22;18385;51.572;6.578;2022-12-18T10:12:25;3.20;69.80
31677;DHT22;18385;51.572;6.578;2022-12-18T10:20:32;3.50;69.50
31677;DHT22;18385;51.572;6.578;2022-12-18T10:23:14;3.60;69.50
31677;DHT22;18385;51.572;6.578;2022-12-18T10:26:00;3.60;69.30
31677;DHT22;18385;51.572;6.578;2022-12-18T10:28:30;3.70;69.40
31677;DHT22;18385;51.572;6.578;2022-12-18T10:30:56;3.70;69.20
31677;DHT22;18385;51.572;6.578;2022-12-18T10:33:23;3.80;69.40
31677;DHT22;18385;51.572;6.578;2022-12-18T10:35:53;3.80;69.30
31677;DHT22;18385;51.572;6.578;2022-12-18T10:38:29;3.90;69.20
31677;DHT22;18385;51.572;6.578;2022-12-18T10:41:23;3.90;70.00
31677;DHT22;18385;51.572;6.578;2022-12-18T10:44:17;3.90;69.20
31677;DHT22;18385;51.572;6.578;2022-12-18T10:46:45;4.00;69.10
31677;DHT22;18385;51.572;6.578;2022-12-18T10:49:23;4.00;69.20
31677;DHT22;18385;51.572;6.578;2022-12-18T10:51:49;4.00;69.10
31677;DHT22;18385;51.572;6.578;2022-12-18T10:54:20;4.00;69.10
31677;DHT22;18385;51.572;6.578;2022-12-18T10:56:46;4.10;69.00
31677;DHT22;18385;51.572;6.578;2022-12-18T10:59:17;4.10;69.10
31677;DHT22;18385;51.572;6.578;2022-12-18T11:01:56;4.20;68.90
31677;DHT22;18385;51.572;6.578;2022-12-18T11:04:24;4.20;69.00
31677;DHT22;18385;51.572;6.578;2022-12-18T11:06:55;4.30;69.00
31677;DHT22;18385;51.572;6.578;2022-12-18T11:09:28;4.40;68.90
31677;DHT22;18385;51.572;6.578;2022-12-18T11:11:56;4.50;68.90
31677;DHT22;18385;51.572;6.578;2022-12-18T11:14:41;4.60;68.90
31677;DHT22;18385;51.572;6.578;2022-12-18T11:17:18;4.70;68.60
31677;DHT22;18385;51.572;6.578;2022-12-18T11:23:12;4.80;68.50
31677;DHT22;18385;51.572;6.578;2022-12-18T11:25:39;4.90;68.40
31677;DHT22;18385;51.572;6.578;2022-12-18T11:31:47;4.90;68.20
31677;DHT22;18385;51.572;6.578;2022-12-18T11:34:55;4.90;68.30
31677;DHT22;18385;51.572;6.578;2022-12-18T11:52:43;5.00;68.30
31677;DHT22;18385;51.572;6.578;2022-12-18T11:59:54;5.20;68.10
31677;DHT22;18385;51.572;6.578;2022-12-18T12:03:20;5.40;68.00
31677;DHT22;18385;51.572;6.578;2022-12-18T12:09:54;5.50;67.60
31677;DHT22;18385;51.572;6.578;2022-12-18T12:24:43;5.40;67.50
31677;DHT22;18385;51.572;6.578;2022-12-18T12:40:06;5.50;67.40
31677;DHT22;18385;51.572;6.578;2022-12-18T12:42:38;5.40;67.40
31677;DHT22;18385;51.572;6.578;2022-12-18T12:45:44;5.50;67.40
31677;DHT22;18385;51.572;6.578;2022-12-18T12:48:35;5.50;67.30
31677;DHT22;18385;51.572;6.578;2022-12-18T12:51:08;5.40;67.10
31677;DHT22;18385;51.572;6.578;2022-12-18T12:53:39;5.30;67.30
31677;DHT22;18385;51.572;6.578;2022-12-18T12:56:10;5.30;67.40
31677;DHT22;18385;51.572;6.578;2022-12-18T12:58:45;5.30;67.40
31677;DHT22;18385;51.572;6.578;2022-12-18T13:01:26;5.30;67.30
31677;DHT22;18385;51.572;6.578;2022-12-18T13:06:47;5.40;67.30
31677;DHT22;18385;51.572;6.578;2022-12-18T13:09:15;5.30;67.20
31677;DHT22;18385;51.572;6.578;2022-12-18T13:12:19;5.30;67.20
31677;DHT22;18385;51.572;6.578;2022-12-18T13:18:57;5.30;67.20
31677;DHT22;18385;51.572;6.578;2022-12-18T13:21:25;5.30;67.40
31677;DHT22;18385;51.572;6.578;2022-12-18T13:38:41;5.10;67.00
31677;DHT22;18385;51.572;6.578;2022-12-18T13:44:12;5.10;66.90
31677;DHT22;18385;51.572;6.578;2022-12-18T13:46:46;5.00;66.80
31677;DHT22;18385;51.572;6.578;2022-12-18T13:51:41;5.00;67.00
31677;DHT22;18385;51.572;6.578;2022-12-18T13:56:58;5.00;66.90
31677;DHT22;18385;51.572;6.578;2022-12-18T13:59:35;4.90;66.90
31677;DHT22;18385;51.572;6.578;2022-12-18T14:02:12;5.00;67.00
31677;DHT22;18385;51.572;6.578;2022-12-18T14:04:39;5.00;66.80
31677;DHT22;18385;51.572;6.578;2022-12-18T14:07:07;5.00;66.80
31677;DHT22;18385;51.572;6.578;2022-12-18T14:09:56;5.00;66.70
31677;DHT22;18385;51.572;6.578;2022-12-18T14:12:31;4.90;66.60
31677;DHT22;18385;51.572;6.578;2022-12-18T14:15:34;4.90;66.70
31677;DHT22;18385;51.572;6.578;2022-12-18T14:18:21;4.90;66.70
31677;DHT22;18385;51.572;6.578;2022-12-18T14:20:48;4.90;66.70
31677;DHT22;18385;51.572;6.578;2022-12-18T14:23:33;4.90;66.70
31677;DHT22;18385;51.572;6.578;2022-12-18T14:26:01;4.90;67.30
31677;DHT22;18385;51.572;6.578;2022-12-18T14:28:27;4.90;66.60
31677;DHT22;18385;51.572;6.578;2022-12-18T14:30:53;4.80;66.40
31677;DHT22;18385;51.572;6.578;2022-12-18T14:33:27;4.80;66.50
31677;DHT22;18385;51.572;6.578;2022-12-18T14:36:01;4.80;66.40
31677;DHT22;18385;51.572;6.578;2022-12-18T14:38:39;4.80;66.40
31677;DHT22;18385;51.572;6.578;2022-12-18T14:41:15;4.80;67.20
31677;DHT22;18385;51.572;6.578;2022-12-18T14:43:44;4.80;67.10
31677;DHT22;18385;51.572;6.578;2022-12-18T14:46:38;4.70;66.40
31677;DHT22;18385;51.572;6.578;2022-12-18T14:49:14;4.80;66.40
31677;DHT22;18385;51.572;6.578;2022-12-18T14:51:53;4.80;66.40
31677;DHT22;18385;51.572;6.578;2022-12-18T14:54:20;4.70;66.30
31677;DHT22;18385;51.572;6.578;2022-12-18T14:57:35;4.70;66.40
31677;DHT22;18385;51.572;6.578;2022-12-18T14:59:35;4.70;66.30
31677;DHT22;18385;51.572;6.578;2022-12-18T15:02:08;4.70;66.20
31677;DHT22;18385;51.572;6.578;2022-12-18T15:04:38;4.70;66.20
31677;DHT22;18385;51.572;6.578;2022-12-18T15:09:30;4.60;66.10
31677;DHT22;18385;51.572;6.578;2022-12-18T15:12:00;4.60;66.20
31677;DHT22;18385;51.572;6.578;2022-12-18T15:14:39;4.50;66.10
31677;DHT22;18385;51.572;6.578;2022-12-18T15:17:23;4.50;66.00
31677;DHT22;18385;51.572;6.578;2022-12-18T15:19:59;4.60;66.10
31677;DHT22;18385;51.572;6.578;2022-12-18T15:22:26;4.50;66.10
31677;DHT22;18385;51.572;6.578;2022-12-18T15:24:54;4.50;66.10
31677;DHT22;18385;51.572;6.578;2022-12-18T15:27:35;4.50;66.00
31677;DHT22;18385;51.572;6.578;2022-12-18T15:32:29;4.40;66.00
31677;DHT22;18385;51.572;6.578;2022-12-18T15:38:09;4.40;65.90
31677;DHT22;18385;51.572;6.578;2022-12-18T15:41:03;4.40;65.90
31677;DHT22;18385;51.572;6.578;2022-12-18T15:43:58;4.40;65.90
31677;DHT22;18385;51.572;6.578;2022-12-18T15:46:36;4.30;65.90
31677;DHT22;18385;51.572;6.578;2022-12-18T15:49:14;4.30;65.80
31677;DHT22;18385;51.572;6.578;2022-12-18T15:51:54;4.30;65.80
31677;DHT22;18385;51.572;6.578;2022-12-18T15:55:15;4.30;65.80
31677;DHT22;18385;51.572;6.578;2022-12-18T15:58:25;4.20;65.80
31677;DHT22;18385;51.572;6.578;2022-12-18T16:00:55;4.20;65.90
31677;DHT22;18385;51.572;6.578;2022-12-18T16:03:27;4.20;65.90
31677;DHT22;18385;51.572;6.578;2022-12-18T16:05:53;4.10;65.80
31677;DHT22;18385;51.572;6.578;2022-12-18T16:08:19;4.20;65.90
31677;DHT22;18385;51.572;6.578;2022-12-18T16:10:45;4.10;65.70
31677;DHT22;18385;51.572;6.578;2022-12-18T16:13:13;4.20;65.80
31677;DHT22;18385;51.572;6.578;2022-12-18T16:15:41;4.10;65.60
31677;DHT22;18385;51.572;6.578;2022-12-18T16:18:07;4.10;65.70
31677;DHT22;18385;51.572;6.578;2022-12-18T16:20:33;4.10;65.70
31677;DHT22;18385;51.572;6.578;2022-12-18T16:22:59;4.10;65.70
31677;DHT22;18385;51.572;6.578;2022-12-18T16:25:27;4.10;65.60
31677;DHT22;18385;51.572;6.578;2022-12-18T16:27:54;4.10;65.70
31677;DHT22;18385;51.572;6.578;2022-12-18T16:30:30;4.00;65.60
31677;DHT22;18385;51.572;6.578;2022-12-18T16:32:57;4.00;65.60
31677;DHT22;18385;51.572;6.578;2022-12-18T16:35:24;4.00;65.80
31677;DHT22;18385;51.572;6.578;2022-12-18T16:37:50;4.00;65.70
31677;DHT22;18385;51.572;6.578;2022-12-18T16:40:17;4.00;65.60
31677;DHT22;18385;51.572;6.578;2022-12-18T16:42:44;4.00;65.60
31677;DHT22;18385;51.572;6.578;2022-12-18T16:45:17;4.00;65.60
31677;DHT22;18385;51.572;6.578;2022-12-18T16:47:44;4.00;65.50
31677;DHT22;18385;51.572;6.578;2022-12-18T16:50:10;4.00;65.50
31677;DHT22;18385;51.572;6.578;2022-12-18T16:52:43;3.90;65.40
31677;DHT22;18385;51.572;6.578;2022-12-18T16:55:09;4.00;65.40
31677;DHT22;18385;51.572;6.578;2022-12-18T16:57:35;3.90;65.40
31677;DHT22;18385;51.572;6.578;2022-12-18T17:00:02;3.90;65.40
31677;DHT22;18385;51.572;6.578;2022-12-18T17:02:28;3.90;65.40
31677;DHT22;18385;51.572;6.578;2022-12-18T17:04:56;3.90;65.40
31677;DHT22;18385;51.572;6.578;2022-12-18T17:07:23;3.90;65.30
31677;DHT22;18385;51.572;6.578;2022-12-18T17:09:49;3.90;65.40
31677;DHT22;18385;51.572;6.578;2022-12-18T17:12:16;3.80;65.30
31677;DHT22;18385;51.572;6.578;2022-12-18T17:14:41;3.90;65.30
31677;DHT22;18385;51.572;6.578;2022-12-18T17:17:07;3.90;65.20
31677;DHT22;18385;51.572;6.578;2022-12-18T17:19:33;3.80;66.00
31677;DHT22;18385;51.572;6.578;2022-12-18T17:21:59;3.80;65.20
31677;DHT22;18385;51.572;6.578;2022-12-18T17:24:25;3.80;65.30
31677;DHT22;18385;51.572;6.578;2022-12-18T17:26:50;3.80;65.20
31677;DHT22;18385;51.572;6.578;2022-12-18T17:29:20;3.90;65.20
31677;DHT22;18385;51.572;6.578;2022-12-18T17:31:46;3.90;65.20
31677;DHT22;18385;51.572;6.578;2022-12-18T17:34:15;3.80;65.20
31677;DHT22;18385;51.572;6.578;2022-12-18T17:36:41;3.90;65.20
31677;DHT22;18385;51.572;6.578;2022-12-18T17:39:10;3.80;65.10
31677;DHT22;18385;51.572;6.578;2022-12-18T17:41:40;3.90;65.10
31677;DHT22;18385;51.572;6.578;2022-12-18T17:44:06;3.80;65.10
31677;DHT22;18385;51.572;6.578;2022-12-18T17:46:32;3.80;65.00
31677;DHT22;18385;51.572;6.578;2022-12-18T17:49:00;3.80;65.00
31677;DHT22;18385;51.572;6.578;2022-12-18T17:51:26;3.80;65.10
31677;DHT22;18385;51.572;6.578;2022-12-18T17:53:52;3.80;65.00
31677;DHT22;18385;51.572;6.578;2022-12-18T17:56:20;3.80;65.00
31677;DHT22;18385;51.572;6.578;2022-12-18T17:58:46;3.80;65.00
31677;DHT22;18385;51.572;6.578;2022-12-18T18:01:21;3.80;65.00
31677;DHT22;18385;51.572;6.578;2022-12-18T18:03:47;3.80;65.00
31677;DHT22;18385;51.572;6.578;2022-12-18T18:06:13;3.80;65.00
31677;DHT22;18385;51.572;6.578;2022-12-18T18:08:39;3.90;65.00
31677;DHT22;18385;51.572;6.578;2022-12-18T18:11:10;3.80;65.00